Buckner, MO (64016)

12:34 AM CST on December 15, 2017 (GMT -0600)
Elsea Smith Road | | Change Station

Elev 892 ft 39.16 °N, 94.26 °W | Updated 4 minutes ago

Overcast
Overcast
30.5 °F
Feels Like 30 °F
N
0.0
Wind Variable Wind from ENE
Gusts 13.0 mph

Today
High -- | Low -- °F
--% Chance of Precip.
Yesterday
High -- | Low -- °F
Precip. -- in
Pressure 30.14 in
Visibility 10.0 miles
Clouds Clear
Windchill 30 °F
Dew Point 24 °F
Humidity 78%
Rainfall 0.00 in
Snow Depth Not available.
7:29 AM 4:55 PM
Waning Crescent, 8% visible
METAR KLXT 150553Z AUTO 23004KT 10SM CLR 00/M04 A3012 RMK AO2 SLP206 T00001044 10039 20000 400440000 50001
Pressure 30.14 in
Visibility 10.0 miles
Clouds Clear
Windchill 30 °F
Dew Point 24 °F
Humidity 78%
Rainfall 0.00 in
Snow Depth Not available.
7:29 AM 4:55 PM
Waning Crescent, 8% visible
METAR KLXT 150553Z AUTO 23004KT 10SM CLR 00/M04 A3012 RMK AO2 SLP206 T00001044 10039 20000 400440000 50001

Get Severe Weather Alerts

Thanks for signing up!

Be on the lookout for a verification email in your inbox.

You'll start receiving the daily forecast at 6 AM.

×

10-Day Weather Forecast

Almanac

Astronomy

Dec. 15, 2017 Rise Set
Actual Time
Civil Twilight
Nautical Twilight
Astronomical Twilight
Moon
Length of Visible Light
Length of Day
Tomorrow will be .
, % of the Moon is Illuminated

Today's Extremes

State Highs State Lows

Community

WunderPhotos

Category 6

Welcome to Category 6. This is the collective home for Weather Underground's featured writeups by Dr. Jeff Masters (right), Bob Henson (left), Chris Burt, and other regular contributors.

Nearby

Air Quality

  Air Quality AQ Index Pollutant
Not available.

Snow Depth

Station Depth Elevation

Earthquake Activity

City Distance Mag. Time & Date
Minimum magnitude displayed is 2.5.

Coastal Water Temperatures

Place Temperature

Stations

Nearby Weather Stations

Station Location Temp. Windchill Dew Point Humidity Wind Precip. Elev Updated Type
                   

Watches & Warnings

There are currently no watches in effect.